• Join FlightAware (Why Join?)
  • Login
  • US Flag 
02:41AM EST


 

Airport Tracker/Info


-or-


 

Live Flight TrackerFlight Track Log ✈ CES5648 ✈ 31-Dec-2013 ✈ ZSWY / WUS - ZSSS / SHA

Flight Track Log - Related Links

Times and Time Zones

All times are in EST time to prevent confusion due to time zone crossing. See the CES5648 flight status page for this flight to view local times or setup timezone preferences in your user account.

Time Position Orientation Groundspeed Altitude Reporting Facility
EST Latitude Longitude Course Direction KTS MPH feet Rate Location/Type
09:26AM 28.7377 118.9577 39° Northeast  Level Estimated
09:27AM 28.8065 119.0222 39° Northeast  Level Estimated
09:28AM 28.8752 119.0867 39° Northeast  Level Estimated
09:29AM 28.9440 119.1513 39° Northeast  Level Estimated
09:30AM 29.0127 119.2160 39° Northeast  Level Estimated
09:31AM 29.0814 119.2807 39° Northeast  Level Estimated
09:32AM 29.1500 119.3456 40° Northeast  Level Estimated
09:33AM 29.2187 119.4105 40° Northeast  Level Estimated
09:34AM 29.2873 119.4755 40° Northeast  Level Estimated
09:35AM 29.3558 119.5406 40° Northeast  Level Estimated
09:36AM 29.4244 119.6059 40° Northeast  Level Estimated
09:37AM 29.4928 119.6711 40° Northeast  Level Estimated
09:38AM 29.5613 119.7365 40° Northeast  Level Estimated
09:39AM 29.6297 119.8020 40° Northeast  Level Estimated
09:40AM 29.6981 119.8676 40° Northeast  Level Estimated
09:41AM 29.7665 119.9332 40° Northeast  Level Estimated
09:42AM 29.8349 119.9989 40° Northeast  Level Estimated
09:43AM 29.9032 120.0648 40° Northeast  Level Estimated
09:44AM 29.9714 120.1307 40° Northeast  Level Estimated
09:45AM 30.0397 120.1967 40° Northeast  Level Estimated
09:46AM 30.1079 120.2628 40° Northeast  Level Estimated
09:47AM 30.1760 120.3290 40° Northeast  Level Estimated
09:48AM 30.2442 120.3953 40° Northeast  Level Estimated
09:49AM 30.3123 120.4616 40° Northeast  Level Estimated
09:50AM 30.3803 120.5281 40° Northeast  Level Estimated
09:51AM 30.4484 120.5947 40° Northeast  Level Estimated
09:52AM 30.5164 120.6613 40° Northeast  Level Estimated
09:53AM 30.5844 120.7280 40° Northeast  Level Estimated
09:54AM 30.6523 120.7949 40° Northeast  Level Estimated
09:55AM 30.7202 120.8618 40° Northeast  Level Estimated
09:56AM 30.7881 120.9288 40° Northeast  Level Estimated
09:57AM 30.8587 120.9987 40° Northeast  Level Estimated
09:58AM 30.9292 121.0686 40° Northeast  Level Estimated
09:59AM 30.9997 121.1387 40° Northeast  Level Estimated
10:00AM 31.0702 121.2089 40° Northeast  Level Estimated
10:01AM 31.1407 121.2792 40° Northeast  Level Estimated
10:02AM 31.1979 121.3363 41° Northeast  Level Estimated
10:03AM 31.1979 121.3363 350° North  Level Estimated
10:04AM 31.1979 121.3363 350° North  Level Estimated
10:05AM 31.1979 121.3363 350° North  Level Estimated
10:06AM 31.1979 121.3363 350° North  Level Estimated
10:07AM 31.1979 121.3363 350° North  Level Estimated
10:08AM 31.1979 121.3363 350° North  Level Estimated
10:09AM 31.1979 121.3363 350° North  Level Estimated
10:10AM 31.1979 121.3363 350° North  Level Estimated
10:11AM 31.1979 121.3363 350° North  Level Estimated
10:12AM 31.1979 121.3363 350° North  Level Estimated
10:13AM 31.1979 121.3363 350° North  Level Estimated
10:14AM 31.1979 121.3363 350° North  Level Estimated
10:15AM 31.1979 121.3363 350° North  Level Estimated
10:16AM 31.1979 121.3363 350° North  Level Estimated